Aurelius, New York
Current Conditions -  °F | °C
As of 5:54 AM on Saturday 01 Nov 2014 (Local Time) from KSYR Reporting Station
Light Rain Light Rain  
Wind Chill: 36°   Ceiling: 4600
Heat Index: 41°   Visibility: 10mi
Dew Point: 36°   Wind: 8mph
Humidity: 82%   Direction: 330°NNW
Pressure: 29.98"   Gusts: NA
Location:  42.9235°N, 76.5525°W
Report Text: KSYR 010954Z 33007KT 10SM -RA FEW038 BKN046 OVC080 05/02 A2998 RMK AO2 RAB0857 SLP150 P0000 T00500022
Loading
Personal Weather Stations






























Interactive Weather Map
Tropical Storm Tracking
New forecast layout! Learn more

10-Day Weather Forecast

Advertisements
Track Severe Weather on mobile